sensor_id;sensor_type;location;lat;lon;timestamp;P1;durP1;ratioP1;P2;durP2;ratioP2
64550;SDS011;50945;44.472;-123.352;2022-07-05T00:01:00;2.20;;;2.00;;
64550;SDS011;50945;44.472;-123.352;2022-07-05T00:03:26;2.00;;;1.90;;
64550;SDS011;50945;44.472;-123.352;2022-07-05T00:05:53;3.20;;;1.90;;
64550;SDS011;50945;44.472;-123.352;2022-07-05T00:08:21;1.95;;;1.85;;
64550;SDS011;50945;44.472;-123.352;2022-07-05T00:10:47;1.80;;;1.70;;
64550;SDS011;50945;44.472;-123.352;2022-07-05T00:13:14;2.30;;;2.05;;
64550;SDS011;50945;44.472;-123.352;2022-07-05T00:15:41;1.88;;;1.77;;
64550;SDS011;50945;44.472;-123.352;2022-07-05T00:18:07;2.20;;;2.00;;
64550;SDS011;50945;44.472;-123.352;2022-07-05T00:20:34;3.22;;;2.00;;
64550;SDS011;50945;44.472;-123.352;2022-07-05T00:23:00;2.10;;;2.00;;
64550;SDS011;50945;44.472;-123.352;2022-07-05T00:25:26;1.80;;;1.58;;
64550;SDS011;50945;44.472;-123.352;2022-07-05T00:27:53;2.30;;;2.05;;
64550;SDS011;50945;44.472;-123.352;2022-07-05T00:30:19;2.05;;;1.80;;
64550;SDS011;50945;44.472;-123.352;2022-07-05T00:32:45;2.90;;;1.88;;
64550;SDS011;50945;44.472;-123.352;2022-07-05T00:35:12;2.53;;;1.80;;
64550;SDS011;50945;44.472;-123.352;2022-07-05T00:37:38;1.80;;;1.70;;
64550;SDS011;50945;44.472;-123.352;2022-07-05T00:40:04;1.85;;;1.75;;
64550;SDS011;50945;44.472;-123.352;2022-07-05T00:42:33;1.95;;;1.85;;
64550;SDS011;50945;44.472;-123.352;2022-07-05T00:44:59;3.58;;;2.33;;
64550;SDS011;50945;44.472;-123.352;2022-07-05T00:47:28;1.88;;;1.70;;
64550;SDS011;50945;44.472;-123.352;2022-07-05T00:49:54;2.58;;;1.75;;
64550;SDS011;50945;44.472;-123.352;2022-07-05T00:52:21;2.53;;;1.80;;
64550;SDS011;50945;44.472;-123.352;2022-07-05T00:54:48;2.78;;;1.70;;
64550;SDS011;50945;44.472;-123.352;2022-07-05T00:57:15;1.73;;;1.63;;
64550;SDS011;50945;44.472;-123.352;2022-07-05T00:59:42;1.95;;;1.67;;
64550;SDS011;50945;44.472;-123.352;2022-07-05T01:02:08;2.85;;;1.77;;
64550;SDS011;50945;44.472;-123.352;2022-07-05T01:04:35;2.40;;;1.90;;
64550;SDS011;50945;44.472;-123.352;2022-07-05T01:07:01;1.67;;;1.52;;
64550;SDS011;50945;44.472;-123.352;2022-07-05T01:09:31;2.80;;;1.90;;
64550;SDS011;50945;44.472;-123.352;2022-07-05T01:12:00;2.17;;;1.88;;
64550;SDS011;50945;44.472;-123.352;2022-07-05T01:14:26;2.08;;;1.58;;
64550;SDS011;50945;44.472;-123.352;2022-07-05T01:16:53;1.70;;;1.60;;
64550;SDS011;50945;44.472;-123.352;2022-07-05T01:19:20;1.70;;;1.60;;
64550;SDS011;50945;44.472;-123.352;2022-07-05T01:21:47;1.70;;;1.60;;
64550;SDS011;50945;44.472;-123.352;2022-07-05T01:24:15;2.05;;;1.73;;
64550;SDS011;50945;44.472;-123.352;2022-07-05T01:26:44;1.70;;;1.60;;
64550;SDS011;50945;44.472;-123.352;2022-07-05T01:29:13;1.95;;;1.75;;
64550;SDS011;50945;44.472;-123.352;2022-07-05T01:31:39;3.60;;;1.85;;
64550;SDS011;50945;44.472;-123.352;2022-07-05T01:34:06;1.77;;;1.67;;
64550;SDS011;50945;44.472;-123.352;2022-07-05T01:36:33;2.03;;;1.67;;
64550;SDS011;50945;44.472;-123.352;2022-07-05T01:39:00;1.63;;;1.52;;
64550;SDS011;50945;44.472;-123.352;2022-07-05T01:41:32;1.80;;;1.70;;
64550;SDS011;50945;44.472;-123.352;2022-07-05T01:43:58;2.58;;;1.40;;
64550;SDS011;50945;44.472;-123.352;2022-07-05T01:46:26;1.52;;;1.42;;
64550;SDS011;50945;44.472;-123.352;2022-07-05T01:49:00;2.13;;;1.85;;
64550;SDS011;50945;44.472;-123.352;2022-07-05T01:51:30;2.70;;;1.70;;
64550;SDS011;50945;44.472;-123.352;2022-07-05T01:54:05;2.47;;;1.70;;
64550;SDS011;50945;44.472;-123.352;2022-07-05T01:56:31;1.80;;;1.70;;
64550;SDS011;50945;44.472;-123.352;2022-07-05T01:58:57;1.20;;;1.20;;
64550;SDS011;50945;44.472;-123.352;2022-07-05T02:01:43;2.22;;;1.58;;
64550;SDS011;50945;44.472;-123.352;2022-07-05T02:04:10;1.98;;;1.88;;
64550;SDS011;50945;44.472;-123.352;2022-07-05T02:06:36;1.75;;;1.65;;
64550;SDS011;50945;44.472;-123.352;2022-07-05T02:09:04;1.67;;;1.58;;
64550;SDS011;50945;44.472;-123.352;2022-07-05T02:11:31;2.13;;;1.58;;
64550;SDS011;50945;44.472;-123.352;2022-07-05T02:13:58;1.88;;;1.67;;
64550;SDS011;50945;44.472;-123.352;2022-07-05T02:16:25;1.92;;;1.55;;
64550;SDS011;50945;44.472;-123.352;2022-07-05T02:18:52;1.67;;;1.58;;
64550;SDS011;50945;44.472;-123.352;2022-07-05T02:21:19;1.98;;;1.75;;
64550;SDS011;50945;44.472;-123.352;2022-07-05T02:23:46;1.58;;;1.48;;
64550;SDS011;50945;44.472;-123.352;2022-07-05T02:26:13;2.00;;;1.75;;
64550;SDS011;50945;44.472;-123.352;2022-07-05T02:28:39;1.95;;;1.70;;
64550;SDS011;50945;44.472;-123.352;2022-07-05T02:31:06;1.88;;;1.73;;
64550;SDS011;50945;44.472;-123.352;2022-07-05T02:33:32;2.33;;;1.73;;
64550;SDS011;50945;44.472;-123.352;2022-07-05T02:36:19;2.72;;;1.80;;
64550;SDS011;50945;44.472;-123.352;2022-07-05T02:38:45;2.10;;;1.92;;
64550;SDS011;50945;44.472;-123.352;2022-07-05T02:41:11;1.98;;;1.77;;
64550;SDS011;50945;44.472;-123.352;2022-07-05T02:43:38;1.60;;;1.50;;
64550;SDS011;50945;44.472;-123.352;2022-07-05T02:46:06;1.75;;;1.65;;
64550;SDS011;50945;44.472;-123.352;2022-07-05T02:48:34;1.70;;;1.60;;
64550;SDS011;50945;44.472;-123.352;2022-07-05T02:51:02;2.33;;;1.70;;
64550;SDS011;50945;44.472;-123.352;2022-07-05T02:53:28;1.75;;;1.50;;
64550;SDS011;50945;44.472;-123.352;2022-07-05T02:55:55;2.15;;;1.33;;
64550;SDS011;50945;44.472;-123.352;2022-07-05T02:58:21;1.15;;;1.15;;
64550;SDS011;50945;44.472;-123.352;2022-07-05T03:00:48;1.85;;;1.75;;
64550;SDS011;50945;44.472;-123.352;2022-07-05T03:03:15;1.95;;;1.75;;
64550;SDS011;50945;44.472;-123.352;2022-07-05T03:05:42;2.45;;;2.00;;
64550;SDS011;50945;44.472;-123.352;2022-07-05T03:08:08;2.00;;;1.90;;
64550;SDS011;50945;44.472;-123.352;2022-07-05T03:10:35;1.90;;;1.80;;
64550;SDS011;50945;44.472;-123.352;2022-07-05T03:13:02;1.60;;;1.50;;
64550;SDS011;50945;44.472;-123.352;2022-07-05T03:15:28;2.13;;;2.03;;
64550;SDS011;50945;44.472;-123.352;2022-07-05T03:17:54;2.05;;;1.95;;
64550;SDS011;50945;44.472;-123.352;2022-07-05T03:22:47;3.95;;;2.05;;
64550;SDS011;50945;44.472;-123.352;2022-07-05T03:27:39;2.67;;;1.80;;
64550;SDS011;50945;44.472;-123.352;2022-07-05T03:32:31;1.98;;;1.88;;
64550;SDS011;50945;44.472;-123.352;2022-07-05T03:37:23;1.60;;;1.50;;
64550;SDS011;50945;44.472;-123.352;2022-07-05T03:42:16;2.08;;;1.98;;
64550;SDS011;50945;44.472;-123.352;2022-07-05T03:47:08;2.00;;;1.85;;
64550;SDS011;50945;44.472;-123.352;2022-07-05T03:52:00;2.08;;;1.88;;
64550;SDS011;50945;44.472;-123.352;2022-07-05T03:54:26;3.38;;;2.10;;
64550;SDS011;50945;44.472;-123.352;2022-07-05T03:56:52;2.05;;;1.88;;
64550;SDS011;50945;44.472;-123.352;2022-07-05T03:59:18;2.42;;;2.00;;
64550;SDS011;50945;44.472;-123.352;2022-07-05T04:01:45;2.70;;;2.13;;
64550;SDS011;50945;44.472;-123.352;2022-07-05T04:04:11;2.97;;;1.83;;
64550;SDS011;50945;44.472;-123.352;2022-07-05T04:06:37;3.60;;;2.20;;
64550;SDS011;50945;44.472;-123.352;2022-07-05T04:09:04;2.20;;;2.00;;
64550;SDS011;50945;44.472;-123.352;2022-07-05T04:11:30;2.08;;;1.95;;
64550;SDS011;50945;44.472;-123.352;2022-07-05T04:13:56;1.75;;;1.65;;
64550;SDS011;50945;44.472;-123.352;2022-07-05T04:18:49;2.10;;;1.83;;
64550;SDS011;50945;44.472;-123.352;2022-07-05T04:21:15;2.30;;;1.80;;
64550;SDS011;50945;44.472;-123.352;2022-07-05T04:23:41;1.55;;;1.48;;
64550;SDS011;50945;44.472;-123.352;2022-07-05T04:26:08;1.90;;;1.80;;
64550;SDS011;50945;44.472;-123.352;2022-07-05T04:31:00;3.30;;;1.95;;
64550;SDS011;50945;44.472;-123.352;2022-07-05T04:33:26;1.73;;;1.60;;
64550;SDS011;50945;44.472;-123.352;2022-07-05T04:38:18;2.55;;;1.98;;
64550;SDS011;50945;44.472;-123.352;2022-07-05T04:40:45;2.35;;;2.15;;
64550;SDS011;50945;44.472;-123.352;2022-07-05T04:43:11;2.30;;;2.10;;
64550;SDS011;50945;44.472;-123.352;2022-07-05T04:48:03;3.65;;;2.05;;
64550;SDS011;50945;44.472;-123.352;2022-07-05T04:50:30;3.25;;;1.92;;
64550;SDS011;50945;44.472;-123.352;2022-07-05T04:52:57;2.13;;;1.95;;
64550;SDS011;50945;44.472;-123.352;2022-07-05T04:55:23;2.70;;;2.17;;
64550;SDS011;50945;44.472;-123.352;2022-07-05T04:57:49;2.55;;;2.35;;
64550;SDS011;50945;44.472;-123.352;2022-07-05T05:00:16;2.47;;;2.28;;
64550;SDS011;50945;44.472;-123.352;2022-07-05T05:02:42;2.30;;;2.10;;
64550;SDS011;50945;44.472;-123.352;2022-07-05T05:05:09;2.50;;;2.30;;
64550;SDS011;50945;44.472;-123.352;2022-07-05T05:07:35;2.88;;;2.15;;
64550;SDS011;50945;44.472;-123.352;2022-07-05T05:10:06;3.33;;;2.35;;
64550;SDS011;50945;44.472;-123.352;2022-07-05T05:12:33;2.92;;;2.17;;
64550;SDS011;50945;44.472;-123.352;2022-07-05T05:17:27;3.00;;;2.72;;
64550;SDS011;50945;44.472;-123.352;2022-07-05T05:20:01;3.42;;;2.53;;
64550;SDS011;50945;44.472;-123.352;2022-07-05T05:22:27;5.55;;;2.85;;
64550;SDS011;50945;44.472;-123.352;2022-07-05T05:24:54;3.92;;;2.90;;
64550;SDS011;50945;44.472;-123.352;2022-07-05T05:27:20;3.17;;;2.38;;
64550;SDS011;50945;44.472;-123.352;2022-07-05T05:29:46;2.83;;;2.53;;
64550;SDS011;50945;44.472;-123.352;2022-07-05T05:32:12;3.38;;;2.45;;
64550;SDS011;50945;44.472;-123.352;2022-07-05T05:34:41;2.42;;;2.22;;
64550;SDS011;50945;44.472;-123.352;2022-07-05T05:37:08;1.98;;;1.70;;
64550;SDS011;50945;44.472;-123.352;2022-07-05T05:39:34;2.33;;;2.13;;
64550;SDS011;50945;44.472;-123.352;2022-07-05T05:42:00;2.20;;;2.10;;
64550;SDS011;50945;44.472;-123.352;2022-07-05T05:44:27;2.20;;;2.10;;
64550;SDS011;50945;44.472;-123.352;2022-07-05T05:46:53;2.72;;;2.00;;
64550;SDS011;50945;44.472;-123.352;2022-07-05T05:49:19;2.10;;;2.00;;
64550;SDS011;50945;44.472;-123.352;2022-07-05T05:51:45;2.95;;;2.20;;
64550;SDS011;50945;44.472;-123.352;2022-07-05T05:54:12;2.67;;;2.10;;
64550;SDS011;50945;44.472;-123.352;2022-07-05T05:56:38;2.60;;;2.28;;
64550;SDS011;50945;44.472;-123.352;2022-07-05T05:59:04;2.20;;;2.10;;
64550;SDS011;50945;44.472;-123.352;2022-07-05T06:01:31;2.55;;;2.35;;
64550;SDS011;50945;44.472;-123.352;2022-07-05T06:06:23;4.38;;;2.13;;
64550;SDS011;50945;44.472;-123.352;2022-07-05T06:08:49;4.32;;;2.20;;
64550;SDS011;50945;44.472;-123.352;2022-07-05T06:11:15;2.28;;;2.08;;
64550;SDS011;50945;44.472;-123.352;2022-07-05T06:13:41;2.20;;;2.00;;
64550;SDS011;50945;44.472;-123.352;2022-07-05T06:16:08;2.50;;;2.15;;
64550;SDS011;50945;44.472;-123.352;2022-07-05T06:18:35;3.85;;;2.35;;
64550;SDS011;50945;44.472;-123.352;2022-07-05T06:21:01;2.45;;;2.25;;
64550;SDS011;50945;44.472;-123.352;2022-07-05T06:23:28;3.10;;;2.40;;
64550;SDS011;50945;44.472;-123.352;2022-07-05T06:25:54;5.07;;;2.65;;
64550;SDS011;50945;44.472;-123.352;2022-07-05T06:28:20;4.15;;;2.45;;
64550;SDS011;50945;44.472;-123.352;2022-07-05T06:30:46;3.10;;;2.38;;
64550;SDS011;50945;44.472;-123.352;2022-07-05T06:33:13;2.97;;;2.20;;
64550;SDS011;50945;44.472;-123.352;2022-07-05T06:38:06;2.13;;;1.92;;
64550;SDS011;50945;44.472;-123.352;2022-07-05T06:40:34;1.95;;;1.70;;
64550;SDS011;50945;44.472;-123.352;2022-07-05T06:43:02;2.75;;;2.20;;
64550;SDS011;50945;44.472;-123.352;2022-07-05T06:45:31;2.33;;;2.20;;
64550;SDS011;50945;44.472;-123.352;2022-07-05T06:48:04;4.30;;;2.40;;
64550;SDS011;50945;44.472;-123.352;2022-07-05T06:50:33;2.60;;;1.90;;
64550;SDS011;50945;44.472;-123.352;2022-07-05T06:53:03;2.20;;;2.00;;
64550;SDS011;50945;44.472;-123.352;2022-07-05T06:55:30;2.25;;;2.03;;
64550;SDS011;50945;44.472;-123.352;2022-07-05T06:58:14;3.15;;;2.10;;
64550;SDS011;50945;44.472;-123.352;2022-07-05T07:00:41;2.75;;;1.83;;
64550;SDS011;50945;44.472;-123.352;2022-07-05T07:03:07;6.55;;;2.20;;
64550;SDS011;50945;44.472;-123.352;2022-07-05T07:05:34;3.00;;;2.10;;
64550;SDS011;50945;44.472;-123.352;2022-07-05T07:08:00;1.90;;;1.80;;
64550;SDS011;50945;44.472;-123.352;2022-07-05T07:10:45;2.30;;;2.20;;
64550;SDS011;50945;44.472;-123.352;2022-07-05T07:13:11;6.50;;;2.53;;
64550;SDS011;50945;44.472;-123.352;2022-07-05T07:15:37;2.63;;;2.28;;
64550;SDS011;50945;44.472;-123.352;2022-07-05T07:18:05;3.85;;;2.38;;
64550;SDS011;50945;44.472;-123.352;2022-07-05T07:20:32;2.50;;;2.30;;
64550;SDS011;50945;44.472;-123.352;2022-07-05T07:22:58;3.50;;;2.10;;
64550;SDS011;50945;44.472;-123.352;2022-07-05T07:25:24;3.03;;;2.03;;
64550;SDS011;50945;44.472;-123.352;2022-07-05T07:27:51;3.10;;;2.13;;
64550;SDS011;50945;44.472;-123.352;2022-07-05T07:30:21;2.67;;;2.47;;
64550;SDS011;50945;44.472;-123.352;2022-07-05T07:32:49;2.28;;;2.08;;
64550;SDS011;50945;44.472;-123.352;2022-07-05T07:35:15;2.20;;;2.10;;
64550;SDS011;50945;44.472;-123.352;2022-07-05T07:37:41;3.33;;;2.25;;
64550;SDS011;50945;44.472;-123.352;2022-07-05T07:42:34;2.55;;;2.30;;
64550;SDS011;50945;44.472;-123.352;2022-07-05T07:45:01;2.78;;;2.30;;
64550;SDS011;50945;44.472;-123.352;2022-07-05T07:47:35;2.58;;;2.38;;
64550;SDS011;50945;44.472;-123.352;2022-07-05T07:50:02;1.92;;;1.83;;
64550;SDS011;50945;44.472;-123.352;2022-07-05T07:52:29;2.50;;;2.30;;
64550;SDS011;50945;44.472;-123.352;2022-07-05T07:54:58;2.25;;;2.05;;
64550;SDS011;50945;44.472;-123.352;2022-07-05T07:57:26;6.88;;;2.63;;
64550;SDS011;50945;44.472;-123.352;2022-07-05T07:59:52;2.75;;;2.42;;
64550;SDS011;50945;44.472;-123.352;2022-07-05T08:02:21;2.15;;;2.00;;
64550;SDS011;50945;44.472;-123.352;2022-07-05T08:04:49;3.20;;;2.72;;
64550;SDS011;50945;44.472;-123.352;2022-07-05T08:07:15;2.08;;;1.98;;
64550;SDS011;50945;44.472;-123.352;2022-07-05T08:09:43;2.42;;;2.10;;
64550;SDS011;50945;44.472;-123.352;2022-07-05T08:12:09;5.20;;;2.88;;
64550;SDS011;50945;44.472;-123.352;2022-07-05T08:14:36;2.45;;;2.25;;
64550;SDS011;50945;44.472;-123.352;2022-07-05T08:17:02;2.20;;;2.10;;
64550;SDS011;50945;44.472;-123.352;2022-07-05T08:19:32;3.28;;;2.15;;
64550;SDS011;50945;44.472;-123.352;2022-07-05T08:22:17;8.25;;;2.30;;
64550;SDS011;50945;44.472;-123.352;2022-07-05T08:24:45;2.40;;;2.20;;
64550;SDS011;50945;44.472;-123.352;2022-07-05T08:27:11;2.85;;;2.00;;
64550;SDS011;50945;44.472;-123.352;2022-07-05T08:29:37;2.50;;;2.30;;
64550;SDS011;50945;44.472;-123.352;2022-07-05T08:32:04;2.78;;;2.00;;
64550;SDS011;50945;44.472;-123.352;2022-07-05T08:34:31;2.40;;;2.20;;
64550;SDS011;50945;44.472;-123.352;2022-07-05T08:36:59;6.22;;;2.15;;
64550;SDS011;50945;44.472;-123.352;2022-07-05T08:39:25;3.08;;;2.33;;
64550;SDS011;50945;44.472;-123.352;2022-07-05T08:41:52;4.15;;;2.40;;
64550;SDS011;50945;44.472;-123.352;2022-07-05T08:44:22;3.45;;;2.33;;
64550;SDS011;50945;44.472;-123.352;2022-07-05T08:49:20;2.63;;;2.30;;
64550;SDS011;50945;44.472;-123.352;2022-07-05T08:51:53;2.45;;;1.98;;
64550;SDS011;50945;44.472;-123.352;2022-07-05T08:54:21;3.15;;;2.05;;
64550;SDS011;50945;44.472;-123.352;2022-07-05T08:56:49;2.00;;;1.90;;
64550;SDS011;50945;44.472;-123.352;2022-07-05T08:59:16;2.28;;;2.08;;
64550;SDS011;50945;44.472;-123.352;2022-07-05T09:01:44;2.63;;;2.30;;
64550;SDS011;50945;44.472;-123.352;2022-07-05T09:04:12;2.35;;;2.17;;
64550;SDS011;50945;44.472;-123.352;2022-07-05T09:06:39;2.45;;;2.25;;
64550;SDS011;50945;44.472;-123.352;2022-07-05T09:09:06;3.05;;;2.15;;
64550;SDS011;50945;44.472;-123.352;2022-07-05T09:11:37;2.53;;;2.17;;
64550;SDS011;50945;44.472;-123.352;2022-07-05T09:14:05;2.30;;;2.10;;
64550;SDS011;50945;44.472;-123.352;2022-07-05T09:16:33;4.28;;;2.47;;
64550;SDS011;50945;44.472;-123.352;2022-07-05T09:19:06;2.53;;;2.30;;
64550;SDS011;50945;44.472;-123.352;2022-07-05T09:21:32;3.58;;;2.30;;
64550;SDS011;50945;44.472;-123.352;2022-07-05T09:24:03;3.67;;;2.38;;
64550;SDS011;50945;44.472;-123.352;2022-07-05T09:29:01;2.83;;;2.63;;
64550;SDS011;50945;44.472;-123.352;2022-07-05T09:31:30;3.28;;;2.20;;
64550;SDS011;50945;44.472;-123.352;2022-07-05T09:34:11;5.40;;;2.03;;
64550;SDS011;50945;44.472;-123.352;2022-07-05T09:36:47;2.75;;;2.10;;
64550;SDS011;50945;44.472;-123.352;2022-07-05T09:39:41;7.20;;;2.75;;
64550;SDS011;50945;44.472;-123.352;2022-07-05T09:44:47;3.15;;;2.20;;
64550;SDS011;50945;44.472;-123.352;2022-07-05T09:47:21;3.42;;;2.20;;
64550;SDS011;50945;44.472;-123.352;2022-07-05T09:49:50;2.60;;;2.40;;
64550;SDS011;50945;44.472;-123.352;2022-07-05T09:55:03;2.80;;;2.60;;
64550;SDS011;50945;44.472;-123.352;2022-07-05T09:57:32;4.82;;;2.50;;
64550;SDS011;50945;44.472;-123.352;2022-07-05T10:00:03;2.55;;;2.35;;
64550;SDS011;50945;44.472;-123.352;2022-07-05T10:02:47;2.92;;;2.50;;
64550;SDS011;50945;44.472;-123.352;2022-07-05T10:07:42;3.45;;;2.35;;
64550;SDS011;50945;44.472;-123.352;2022-07-05T10:10:17;2.42;;;2.22;;
64550;SDS011;50945;44.472;-123.352;2022-07-05T10:12:51;2.92;;;2.30;;
64550;SDS011;50945;44.472;-123.352;2022-07-05T10:15:19;2.67;;;2.20;;
64550;SDS011;50945;44.472;-123.352;2022-07-05T10:17:54;5.05;;;2.70;;
64550;SDS011;50945;44.472;-123.352;2022-07-05T10:23:03;4.25;;;2.80;;
64550;SDS011;50945;44.472;-123.352;2022-07-05T10:25:31;2.90;;;2.53;;
64550;SDS011;50945;44.472;-123.352;2022-07-05T10:27:58;4.45;;;2.72;;
64550;SDS011;50945;44.472;-123.352;2022-07-05T10:30:25;2.90;;;2.70;;
64550;SDS011;50945;44.472;-123.352;2022-07-05T10:32:51;3.03;;;2.55;;
64550;SDS011;50945;44.472;-123.352;2022-07-05T10:35:18;2.53;;;2.30;;
64550;SDS011;50945;44.472;-123.352;2022-07-05T10:37:47;2.78;;;2.50;;
64550;SDS011;50945;44.472;-123.352;2022-07-05T10:40:14;2.33;;;2.13;;
64550;SDS011;50945;44.472;-123.352;2022-07-05T10:42:51;2.95;;;2.65;;
64550;SDS011;50945;44.472;-123.352;2022-07-05T10:53:09;3.53;;;2.58;;
64550;SDS011;50945;44.472;-123.352;2022-07-05T10:58:24;3.20;;;2.72;;
64550;SDS011;50945;44.472;-123.352;2022-07-05T11:13:53;6.65;;;3.17;;
64550;SDS011;50945;44.472;-123.352;2022-07-05T11:16:23;4.30;;;2.38;;
64550;SDS011;50945;44.472;-123.352;2022-07-05T11:19:06;2.55;;;2.30;;
64550;SDS011;50945;44.472;-123.352;2022-07-05T11:24:28;4.70;;;2.58;;
64550;SDS011;50945;44.472;-123.352;2022-07-05T11:26:57;4.57;;;2.35;;
64550;SDS011;50945;44.472;-123.352;2022-07-05T11:32:14;5.28;;;2.40;;
64550;SDS011;50945;44.472;-123.352;2022-07-05T11:34:45;4.57;;;2.72;;
64550;SDS011;50945;44.472;-123.352;2022-07-05T11:39:47;3.75;;;2.20;;
64550;SDS011;50945;44.472;-123.352;2022-07-05T11:42:33;2.50;;;2.30;;
64550;SDS011;50945;44.472;-123.352;2022-07-05T11:45:07;5.97;;;2.92;;
64550;SDS011;50945;44.472;-123.352;2022-07-05T11:47:35;2.88;;;2.50;;
64550;SDS011;50945;44.472;-123.352;2022-07-05T11:50:01;3.45;;;2.50;;
64550;SDS011;50945;44.472;-123.352;2022-07-05T11:52:30;2.67;;;2.47;;
64550;SDS011;50945;44.472;-123.352;2022-07-05T11:54:58;2.50;;;2.30;;
64550;SDS011;50945;44.472;-123.352;2022-07-05T11:57:26;3.15;;;2.10;;
64550;SDS011;50945;44.472;-123.352;2022-07-05T12:02:19;3.45;;;2.40;;
64550;SDS011;50945;44.472;-123.352;2022-07-05T12:04:48;3.08;;;2.78;;
64550;SDS011;50945;44.472;-123.352;2022-07-05T12:07:29;2.53;;;2.33;;
64550;SDS011;50945;44.472;-123.352;2022-07-05T12:10:00;2.47;;;2.28;;
64550;SDS011;50945;44.472;-123.352;2022-07-05T12:12:45;2.53;;;2.28;;
64550;SDS011;50945;44.472;-123.352;2022-07-05T12:15:13;3.00;;;2.35;;
64550;SDS011;50945;44.472;-123.352;2022-07-05T12:17:42;3.38;;;2.80;;
64550;SDS011;50945;44.472;-123.352;2022-07-05T12:20:10;3.10;;;2.75;;
64550;SDS011;50945;44.472;-123.352;2022-07-05T12:22:39;3.78;;;2.67;;
64550;SDS011;50945;44.472;-123.352;2022-07-05T12:25:07;3.00;;;2.70;;
64550;SDS011;50945;44.472;-123.352;2022-07-05T12:27:39;7.97;;;3.10;;
64550;SDS011;50945;44.472;-123.352;2022-07-05T12:30:07;5.65;;;3.58;;
64550;SDS011;50945;44.472;-123.352;2022-07-05T12:32:58;4.60;;;3.08;;
64550;SDS011;50945;44.472;-123.352;2022-07-05T12:35:28;4.97;;;3.88;;
64550;SDS011;50945;44.472;-123.352;2022-07-05T12:38:09;4.28;;;2.85;;
64550;SDS011;50945;44.472;-123.352;2022-07-05T12:40:40;3.22;;;2.83;;
64550;SDS011;50945;44.472;-123.352;2022-07-05T12:43:09;3.05;;;2.55;;
64550;SDS011;50945;44.472;-123.352;2022-07-05T12:45:37;3.47;;;2.83;;
64550;SDS011;50945;44.472;-123.352;2022-07-05T12:48:06;4.32;;;3.05;;
64550;SDS011;50945;44.472;-123.352;2022-07-05T12:53:14;4.82;;;2.88;;
64550;SDS011;50945;44.472;-123.352;2022-07-05T12:58:54;2.78;;;2.53;;
64550;SDS011;50945;44.472;-123.352;2022-07-05T13:01:25;5.32;;;2.78;;
64550;SDS011;50945;44.472;-123.352;2022-07-05T13:14:39;3.65;;;2.80;;
64550;SDS011;50945;44.472;-123.352;2022-07-05T13:17:07;4.00;;;2.92;;
64550;SDS011;50945;44.472;-123.352;2022-07-05T13:19:35;3.33;;;2.85;;
64550;SDS011;50945;44.472;-123.352;2022-07-05T13:22:01;4.07;;;2.67;;
64550;SDS011;50945;44.472;-123.352;2022-07-05T13:24:28;3.65;;;2.83;;
64550;SDS011;50945;44.472;-123.352;2022-07-05T13:26:55;7.18;;;2.78;;
64550;SDS011;50945;44.472;-123.352;2022-07-05T13:29:22;2.72;;;2.47;;
64550;SDS011;50945;44.472;-123.352;2022-07-05T13:31:48;3.10;;;2.78;;
64550;SDS011;50945;44.472;-123.352;2022-07-05T13:34:14;4.57;;;2.72;;
64550;SDS011;50945;44.472;-123.352;2022-07-05T13:36:41;4.10;;;2.47;;
64550;SDS011;50945;44.472;-123.352;2022-07-05T13:39:07;3.33;;;3.03;;
64550;SDS011;50945;44.472;-123.352;2022-07-05T13:41:34;2.58;;;2.38;;
64550;SDS011;50945;44.472;-123.352;2022-07-05T13:44:00;3.42;;;2.50;;
64550;SDS011;50945;44.472;-123.352;2022-07-05T13:48:52;3.15;;;2.67;;
64550;SDS011;50945;44.472;-123.352;2022-07-05T13:51:19;3.03;;;2.60;;
64550;SDS011;50945;44.472;-123.352;2022-07-05T13:53:46;6.15;;;2.88;;
64550;SDS011;50945;44.472;-123.352;2022-07-05T13:56:12;3.30;;;2.85;;
64550;SDS011;50945;44.472;-123.352;2022-07-05T14:01:05;6.10;;;3.70;;
64550;SDS011;50945;44.472;-123.352;2022-07-05T14:03:31;4.38;;;3.08;;
64550;SDS011;50945;44.472;-123.352;2022-07-05T14:05:57;3.80;;;2.67;;
64550;SDS011;50945;44.472;-123.352;2022-07-05T14:08:23;4.88;;;2.72;;
64550;SDS011;50945;44.472;-123.352;2022-07-05T14:10:50;5.50;;;2.78;;
64550;SDS011;50945;44.472;-123.352;2022-07-05T14:13:19;5.28;;;3.03;;
64550;SDS011;50945;44.472;-123.352;2022-07-05T14:15:46;3.35;;;3.00;;
64550;SDS011;50945;44.472;-123.352;2022-07-05T14:18:17;4.25;;;2.90;;
64550;SDS011;50945;44.472;-123.352;2022-07-05T14:20:46;7.75;;;2.83;;
64550;SDS011;50945;44.472;-123.352;2022-07-05T14:23:13;5.97;;;3.00;;
64550;SDS011;50945;44.472;-123.352;2022-07-05T14:25:40;4.40;;;2.80;;
64550;SDS011;50945;44.472;-123.352;2022-07-05T14:28:07;4.85;;;2.97;;
64550;SDS011;50945;44.472;-123.352;2022-07-05T14:30:38;5.68;;;2.45;;
64550;SDS011;50945;44.472;-123.352;2022-07-05T14:33:11;3.55;;;2.72;;
64550;SDS011;50945;44.472;-123.352;2022-07-05T14:35:39;3.63;;;2.88;;
64550;SDS011;50945;44.472;-123.352;2022-07-05T14:38:06;3.85;;;2.72;;
64550;SDS011;50945;44.472;-123.352;2022-07-05T14:40:33;3.45;;;2.75;;
64550;SDS011;50945;44.472;-123.352;2022-07-05T14:45:27;7.82;;;3.50;;
64550;SDS011;50945;44.472;-123.352;2022-07-05T14:47:54;3.00;;;2.63;;
64550;SDS011;50945;44.472;-123.352;2022-07-05T14:50:21;6.57;;;3.42;;
64550;SDS011;50945;44.472;-123.352;2022-07-05T14:52:47;4.20;;;3.05;;
64550;SDS011;50945;44.472;-123.352;2022-07-05T14:55:14;3.35;;;2.83;;
64550;SDS011;50945;44.472;-123.352;2022-07-05T14:57:42;4.22;;;3.03;;
64550;SDS011;50945;44.472;-123.352;2022-07-05T15:00:09;5.93;;;3.30;;
64550;SDS011;50945;44.472;-123.352;2022-07-05T15:02:37;3.78;;;2.70;;
64550;SDS011;50945;44.472;-123.352;2022-07-05T15:05:04;6.45;;;3.03;;
64550;SDS011;50945;44.472;-123.352;2022-07-05T15:07:31;3.08;;;2.72;;
64550;SDS011;50945;44.472;-123.352;2022-07-05T15:09:57;3.17;;;2.88;;
64550;SDS011;50945;44.472;-123.352;2022-07-05T15:12:24;3.75;;;2.80;;
64550;SDS011;50945;44.472;-123.352;2022-07-05T15:14:50;3.53;;;3.13;;
64550;SDS011;50945;44.472;-123.352;2022-07-05T15:17:16;3.90;;;2.95;;
64550;SDS011;50945;44.472;-123.352;2022-07-05T15:19:43;4.00;;;2.92;;
64550;SDS011;50945;44.472;-123.352;2022-07-05T15:22:09;3.35;;;2.83;;
64550;SDS011;50945;44.472;-123.352;2022-07-05T15:27:02;3.20;;;2.78;;
64550;SDS011;50945;44.472;-123.352;2022-07-05T15:29:28;4.57;;;3.17;;
64550;SDS011;50945;44.472;-123.352;2022-07-05T15:34:21;4.00;;;2.80;;
64550;SDS011;50945;44.472;-123.352;2022-07-05T15:36:48;5.25;;;3.00;;
64550;SDS011;50945;44.472;-123.352;2022-07-05T15:39:14;4.35;;;2.97;;
64550;SDS011;50945;44.472;-123.352;2022-07-05T15:41:41;3.25;;;2.95;;
64550;SDS011;50945;44.472;-123.352;2022-07-05T15:44:07;3.35;;;3.05;;
64550;SDS011;50945;44.472;-123.352;2022-07-05T15:46:34;4.80;;;3.13;;
64550;SDS011;50945;44.472;-123.352;2022-07-05T15:49:18;4.85;;;3.50;;
64550;SDS011;50945;44.472;-123.352;2022-07-05T15:51:45;5.57;;;3.38;;
64550;SDS011;50945;44.472;-123.352;2022-07-05T15:54:11;6.50;;;3.70;;
64550;SDS011;50945;44.472;-123.352;2022-07-05T15:56:37;5.82;;;3.40;;
64550;SDS011;50945;44.472;-123.352;2022-07-05T15:59:06;4.32;;;3.25;;
64550;SDS011;50945;44.472;-123.352;2022-07-05T16:01:32;4.70;;;2.97;;
64550;SDS011;50945;44.472;-123.352;2022-07-05T16:03:59;5.80;;;3.25;;
64550;SDS011;50945;44.472;-123.352;2022-07-05T16:06:25;3.78;;;3.30;;
64550;SDS011;50945;44.472;-123.352;2022-07-05T16:08:51;5.45;;;3.47;;